sensor_id;sensor_type;location;lat;lon;timestamp;pressure;altitude;pressure_sealevel;temperature;humidity
59154;BME280;44935;48.944;9.418;2022-07-30T00:00:09;98653.93;;;19.63;48.10
59154;BME280;44935;48.944;9.418;2022-07-30T00:02:36;98654.34;;;19.71;48.31
59154;BME280;44935;48.944;9.418;2022-07-30T00:05:03;98652.75;;;19.94;47.54
59154;BME280;44935;48.944;9.418;2022-07-30T00:07:30;98655.74;;;19.41;48.22
59154;BME280;44935;48.944;9.418;2022-07-30T00:09:58;98660.57;;;19.24;49.14
59154;BME280;44935;48.944;9.418;2022-07-30T00:12:25;98662.86;;;19.03;49.54
59154;BME280;44935;48.944;9.418;2022-07-30T00:14:52;98659.50;;;18.85;50.20
59154;BME280;44935;48.944;9.418;2022-07-30T00:17:19;98668.48;;;18.64;50.63
59154;BME280;44935;48.944;9.418;2022-07-30T00:19:46;98667.88;;;18.46;50.86
59154;BME280;44935;48.944;9.418;2022-07-30T00:22:13;98664.79;;;18.92;49.65
59154;BME280;44935;48.944;9.418;2022-07-30T00:24:40;98663.72;;;18.89;50.08
59154;BME280;44935;48.944;9.418;2022-07-30T00:27:07;98667.90;;;18.53;50.59
59154;BME280;44935;48.944;9.418;2022-07-30T00:29:33;98671.38;;;18.30;51.21
59154;BME280;44935;48.944;9.418;2022-07-30T00:32:00;98669.97;;;19.05;49.74
59154;BME280;44935;48.944;9.418;2022-07-30T00:34:28;98674.90;;;19.14;49.29
59154;BME280;44935;48.944;9.418;2022-07-30T00:36:54;98674.12;;;19.12;50.09
59154;BME280;44935;48.944;9.418;2022-07-30T00:39:21;98675.14;;;19.20;49.48
59154;BME280;44935;48.944;9.418;2022-07-30T00:41:53;98679.73;;;18.53;50.55
59154;BME280;44935;48.944;9.418;2022-07-30T00:44:20;98682.97;;;18.75;50.66
59154;BME280;44935;48.944;9.418;2022-07-30T00:46:47;98680.73;;;18.85;50.04
59154;BME280;44935;48.944;9.418;2022-07-30T00:49:14;98688.13;;;19.11;49.48
59154;BME280;44935;48.944;9.418;2022-07-30T00:51:41;98695.16;;;18.73;50.14
59154;BME280;44935;48.944;9.418;2022-07-30T00:54:08;98698.47;;;18.94;49.91
59154;BME280;44935;48.944;9.418;2022-07-30T00:56:35;98700.87;;;18.46;50.36
59154;BME280;44935;48.944;9.418;2022-07-30T00:59:04;98699.18;;;18.79;50.44
59154;BME280;44935;48.944;9.418;2022-07-30T01:01:31;98695.64;;;18.39;50.14
59154;BME280;44935;48.944;9.418;2022-07-30T01:03:58;98692.58;;;18.43;50.99
59154;BME280;44935;48.944;9.418;2022-07-30T01:06:25;98695.46;;;18.27;51.72
59154;BME280;44935;48.944;9.418;2022-07-30T01:08:52;98700.91;;;17.65;52.57
59154;BME280;44935;48.944;9.418;2022-07-30T01:11:19;98699.61;;;17.63;52.68
59154;BME280;44935;48.944;9.418;2022-07-30T01:13:46;98699.57;;;18.05;51.70
59154;BME280;44935;48.944;9.418;2022-07-30T01:16:13;98709.11;;;17.88;51.91
59154;BME280;44935;48.944;9.418;2022-07-30T01:18:41;98700.21;;;17.92;52.06
59154;BME280;44935;48.944;9.418;2022-07-30T01:21:11;98701.98;;;16.71;54.50
59154;BME280;44935;48.944;9.418;2022-07-30T01:23:43;98702.29;;;18.35;50.77
59154;BME280;44935;48.944;9.418;2022-07-30T01:26:14;98701.67;;;18.26;51.10
59154;BME280;44935;48.944;9.418;2022-07-30T01:28:45;98698.65;;;18.38;50.46
59154;BME280;44935;48.944;9.418;2022-07-30T01:31:15;98702.16;;;18.91;49.50
59154;BME280;44935;48.944;9.418;2022-07-30T01:33:44;98699.74;;;19.05;49.41
59154;BME280;44935;48.944;9.418;2022-07-30T01:36:15;98694.73;;;19.15;48.81
59154;BME280;44935;48.944;9.418;2022-07-30T01:38:44;98693.22;;;18.91;49.52
59154;BME280;44935;48.944;9.418;2022-07-30T01:41:12;98696.53;;;18.90;49.62
59154;BME280;44935;48.944;9.418;2022-07-30T01:43:41;98699.00;;;18.55;50.38
59154;BME280;44935;48.944;9.418;2022-07-30T01:46:10;98699.87;;;18.08;50.58
59154;BME280;44935;48.944;9.418;2022-07-30T01:48:39;98701.25;;;18.19;50.80
59154;BME280;44935;48.944;9.418;2022-07-30T01:51:09;98702.08;;;18.00;51.00
59154;BME280;44935;48.944;9.418;2022-07-30T01:53:38;98698.71;;;18.36;50.46
59154;BME280;44935;48.944;9.418;2022-07-30T01:56:07;98703.25;;;18.12;50.75
59154;BME280;44935;48.944;9.418;2022-07-30T01:58:36;98705.50;;;17.73;51.55
59154;BME280;44935;48.944;9.418;2022-07-30T02:01:04;98704.09;;;17.67;52.08
59154;BME280;44935;48.944;9.418;2022-07-30T02:03:32;98702.97;;;18.14;50.53
59154;BME280;44935;48.944;9.418;2022-07-30T02:06:01;98704.83;;;18.68;49.09
59154;BME280;44935;48.944;9.418;2022-07-30T02:08:35;98704.38;;;18.46;49.99
59154;BME280;44935;48.944;9.418;2022-07-30T02:11:06;98705.23;;;18.56;49.74
59154;BME280;44935;48.944;9.418;2022-07-30T02:13:40;98703.90;;;18.57;49.88
59154;BME280;44935;48.944;9.418;2022-07-30T02:16:14;98700.30;;;18.71;48.73
59154;BME280;44935;48.944;9.418;2022-07-30T02:18:49;98701.09;;;19.68;46.99
59154;BME280;44935;48.944;9.418;2022-07-30T02:21:19;98703.24;;;19.27;47.55
59154;BME280;44935;48.944;9.418;2022-07-30T02:23:47;98701.21;;;19.28;47.63
59154;BME280;44935;48.944;9.418;2022-07-30T02:26:18;98699.52;;;17.60;51.08
59154;BME280;44935;48.944;9.418;2022-07-30T02:28:52;98699.74;;;18.93;48.08
59154;BME280;44935;48.944;9.418;2022-07-30T02:31:22;98705.86;;;19.25;47.46
59154;BME280;44935;48.944;9.418;2022-07-30T02:33:54;98707.15;;;18.79;48.94
59154;BME280;44935;48.944;9.418;2022-07-30T02:36:22;98708.03;;;18.73;49.05
59154;BME280;44935;48.944;9.418;2022-07-30T02:38:51;98710.39;;;18.37;49.58
59154;BME280;44935;48.944;9.418;2022-07-30T02:41:19;98713.33;;;17.84;50.75
59154;BME280;44935;48.944;9.418;2022-07-30T02:43:48;98716.66;;;18.14;50.12
59154;BME280;44935;48.944;9.418;2022-07-30T02:46:17;98719.77;;;17.94;50.45
59154;BME280;44935;48.944;9.418;2022-07-30T02:48:46;98722.47;;;18.54;49.28
59154;BME280;44935;48.944;9.418;2022-07-30T02:51:17;98725.69;;;18.20;49.43
59154;BME280;44935;48.944;9.418;2022-07-30T02:53:47;98730.24;;;18.51;48.16
59154;BME280;44935;48.944;9.418;2022-07-30T02:56:17;98733.48;;;18.23;48.87
59154;BME280;44935;48.944;9.418;2022-07-30T02:58:45;98740.55;;;17.68;49.87
59154;BME280;44935;48.944;9.418;2022-07-30T03:01:15;98740.77;;;17.34;50.56
59154;BME280;44935;48.944;9.418;2022-07-30T03:03:44;98748.41;;;17.01;50.95
59154;BME280;44935;48.944;9.418;2022-07-30T03:06:14;98747.37;;;17.24;51.23
59154;BME280;44935;48.944;9.418;2022-07-30T03:08:42;98743.88;;;17.16;51.22
59154;BME280;44935;48.944;9.418;2022-07-30T03:11:10;98743.84;;;17.04;50.76
59154;BME280;44935;48.944;9.418;2022-07-30T03:13:38;98748.30;;;16.88;50.87
59154;BME280;44935;48.944;9.418;2022-07-30T03:16:08;98751.92;;;16.73;50.89
59154;BME280;44935;48.944;9.418;2022-07-30T03:18:37;98754.82;;;16.92;50.84
59154;BME280;44935;48.944;9.418;2022-07-30T03:21:07;98756.83;;;17.03;49.77
59154;BME280;44935;48.944;9.418;2022-07-30T03:23:36;98755.12;;;17.38;48.95
59154;BME280;44935;48.944;9.418;2022-07-30T03:26:05;98763.26;;;18.16;47.74
59154;BME280;44935;48.944;9.418;2022-07-30T03:28:37;98762.74;;;18.29;47.51
59154;BME280;44935;48.944;9.418;2022-07-30T03:31:05;98764.10;;;17.62;48.67
59154;BME280;44935;48.944;9.418;2022-07-30T03:33:34;98767.02;;;17.39;49.44
59154;BME280;44935;48.944;9.418;2022-07-30T03:36:02;98765.61;;;17.36;49.58
59154;BME280;44935;48.944;9.418;2022-07-30T03:38:30;98768.62;;;17.54;49.29
59154;BME280;44935;48.944;9.418;2022-07-30T03:40:58;98770.77;;;17.12;50.25
59154;BME280;44935;48.944;9.418;2022-07-30T03:43:25;98768.78;;;17.38;49.58
59154;BME280;44935;48.944;9.418;2022-07-30T03:45:53;98772.72;;;17.63;48.93
59154;BME280;44935;48.944;9.418;2022-07-30T03:48:22;98772.42;;;17.15;49.15
59154;BME280;44935;48.944;9.418;2022-07-30T03:50:50;98780.61;;;17.76;48.94
59154;BME280;44935;48.944;9.418;2022-07-30T03:53:19;98780.12;;;17.24;49.15
59154;BME280;44935;48.944;9.418;2022-07-30T03:55:48;98785.83;;;17.52;48.83
59154;BME280;44935;48.944;9.418;2022-07-30T03:58:15;98790.19;;;17.52;49.10
59154;BME280;44935;48.944;9.418;2022-07-30T04:00:46;98790.13;;;17.67;48.71
59154;BME280;44935;48.944;9.418;2022-07-30T04:03:23;98790.19;;;17.34;48.95
59154;BME280;44935;48.944;9.418;2022-07-30T04:05:50;98790.08;;;17.72;48.12
59154;BME280;44935;48.944;9.418;2022-07-30T04:08:17;98786.62;;;18.10;47.42
59154;BME280;44935;48.944;9.418;2022-07-30T04:10:44;98788.47;;;17.99;47.70
59154;BME280;44935;48.944;9.418;2022-07-30T04:13:11;98785.79;;;17.76;47.53
59154;BME280;44935;48.944;9.418;2022-07-30T04:15:44;98789.77;;;18.44;47.00
59154;BME280;44935;48.944;9.418;2022-07-30T04:18:14;98794.78;;;18.43;47.03
59154;BME280;44935;48.944;9.418;2022-07-30T04:20:45;98796.86;;;17.83;47.34
59154;BME280;44935;48.944;9.418;2022-07-30T04:23:14;98804.86;;;17.25;48.56
59154;BME280;44935;48.944;9.418;2022-07-30T04:25:42;98809.13;;;17.27;48.97
59154;BME280;44935;48.944;9.418;2022-07-30T04:28:10;98813.38;;;16.71;49.87
59154;BME280;44935;48.944;9.418;2022-07-30T04:30:37;98817.29;;;16.69;50.79
59154;BME280;44935;48.944;9.418;2022-07-30T04:33:04;98818.17;;;16.66;50.48
59154;BME280;44935;48.944;9.418;2022-07-30T04:35:32;98823.74;;;17.03;49.76
59154;BME280;44935;48.944;9.418;2022-07-30T04:38:00;98825.16;;;17.08;49.22
59154;BME280;44935;48.944;9.418;2022-07-30T04:40:27;98824.46;;;17.08;49.64
59154;BME280;44935;48.944;9.418;2022-07-30T04:42:55;98830.96;;;16.56;50.55
59154;BME280;44935;48.944;9.418;2022-07-30T04:45:22;98830.50;;;17.02;49.97
59154;BME280;44935;48.944;9.418;2022-07-30T04:47:49;98831.11;;;16.99;49.72
59154;BME280;44935;48.944;9.418;2022-07-30T04:50:19;98834.55;;;16.60;50.46
59154;BME280;44935;48.944;9.418;2022-07-30T04:52:47;98835.68;;;16.68;50.64
59154;BME280;44935;48.944;9.418;2022-07-30T04:55:15;98835.71;;;16.70;50.22
59154;BME280;44935;48.944;9.418;2022-07-30T04:57:45;98839.02;;;16.95;50.20
59154;BME280;44935;48.944;9.418;2022-07-30T05:00:15;98839.06;;;16.72;51.05
59154;BME280;44935;48.944;9.418;2022-07-30T05:02:43;98839.15;;;16.40;51.28
59154;BME280;44935;48.944;9.418;2022-07-30T05:05:13;98839.61;;;17.10;51.09
59154;BME280;44935;48.944;9.418;2022-07-30T05:07:41;98846.18;;;16.76;51.47
59154;BME280;44935;48.944;9.418;2022-07-30T05:10:11;98847.47;;;17.26;50.53
59154;BME280;44935;48.944;9.418;2022-07-30T05:12:38;98846.84;;;17.40;50.36
59154;BME280;44935;48.944;9.418;2022-07-30T05:15:07;98845.62;;;17.17;50.88
59154;BME280;44935;48.944;9.418;2022-07-30T05:17:35;98849.24;;;17.14;50.29
59154;BME280;44935;48.944;9.418;2022-07-30T05:20:03;98848.36;;;17.33;50.96
59154;BME280;44935;48.944;9.418;2022-07-30T05:22:31;98851.58;;;17.22;50.44
59154;BME280;44935;48.944;9.418;2022-07-30T05:24:59;98850.48;;;17.26;50.79
59154;BME280;44935;48.944;9.418;2022-07-30T05:27:26;98851.53;;;17.42;50.93
59154;BME280;44935;48.944;9.418;2022-07-30T05:29:53;98853.00;;;17.61;50.12
59154;BME280;44935;48.944;9.418;2022-07-30T05:32:20;98854.83;;;17.64;50.39
59154;BME280;44935;48.944;9.418;2022-07-30T05:34:47;98856.81;;;17.48;50.68
59154;BME280;44935;48.944;9.418;2022-07-30T05:37:13;98854.79;;;17.95;50.06
59154;BME280;44935;48.944;9.418;2022-07-30T05:39:40;98851.97;;;18.41;49.29
59154;BME280;44935;48.944;9.418;2022-07-30T05:42:07;98850.93;;;18.42;48.96
59154;BME280;44935;48.944;9.418;2022-07-30T05:44:34;98851.21;;;18.91;48.27
59154;BME280;44935;48.944;9.418;2022-07-30T05:47:01;98851.50;;;19.30;47.40
59154;BME280;44935;48.944;9.418;2022-07-30T05:49:28;98853.38;;;19.17;47.35
59154;BME280;44935;48.944;9.418;2022-07-30T05:51:55;98854.05;;;19.66;46.61
59154;BME280;44935;48.944;9.418;2022-07-30T05:54:22;98857.88;;;19.58;46.66
59154;BME280;44935;48.944;9.418;2022-07-30T05:56:49;98860.28;;;19.86;46.27
59154;BME280;44935;48.944;9.418;2022-07-30T05:59:16;98858.97;;;20.03;45.66
59154;BME280;44935;48.944;9.418;2022-07-30T06:01:43;98860.40;;;19.68;45.75
59154;BME280;44935;48.944;9.418;2022-07-30T06:04:10;98862.89;;;19.46;45.32
59154;BME280;44935;48.944;9.418;2022-07-30T06:06:37;98866.82;;;19.62;45.19
59154;BME280;44935;48.944;9.418;2022-07-30T06:09:04;98866.28;;;20.50;44.12
59154;BME280;44935;48.944;9.418;2022-07-30T06:11:31;98866.61;;;19.95;44.74
59154;BME280;44935;48.944;9.418;2022-07-30T06:13:57;98868.84;;;20.23;44.73
59154;BME280;44935;48.944;9.418;2022-07-30T06:16:24;98868.65;;;20.02;44.89
59154;BME280;44935;48.944;9.418;2022-07-30T06:18:51;98873.20;;;20.61;43.56
59154;BME280;44935;48.944;9.418;2022-07-30T06:21:18;98874.25;;;20.73;43.53
59154;BME280;44935;48.944;9.418;2022-07-30T06:23:45;98877.09;;;21.26;43.13
59154;BME280;44935;48.944;9.418;2022-07-30T06:26:12;98879.27;;;20.58;43.36
59154;BME280;44935;48.944;9.418;2022-07-30T06:28:39;98873.92;;;20.41;44.01
59154;BME280;44935;48.944;9.418;2022-07-30T06:31:06;98876.54;;;20.89;43.31
59154;BME280;44935;48.944;9.418;2022-07-30T06:33:33;98875.41;;;20.56;43.48
59154;BME280;44935;48.944;9.418;2022-07-30T06:36:00;98874.52;;;20.94;42.91
59154;BME280;44935;48.944;9.418;2022-07-30T06:38:27;98871.09;;;21.18;42.24
59154;BME280;44935;48.944;9.418;2022-07-30T06:40:54;98871.34;;;21.07;42.30
59154;BME280;44935;48.944;9.418;2022-07-30T06:43:21;98874.01;;;21.18;42.42
59154;BME280;44935;48.944;9.418;2022-07-30T06:45:48;98880.20;;;20.85;43.39
59154;BME280;44935;48.944;9.418;2022-07-30T06:48:15;98874.36;;;21.42;42.25
59154;BME280;44935;48.944;9.418;2022-07-30T06:50:42;98879.24;;;21.59;41.60
59154;BME280;44935;48.944;9.418;2022-07-30T06:53:08;98880.85;;;21.08;42.23
59154;BME280;44935;48.944;9.418;2022-07-30T06:55:35;98883.39;;;21.56;40.29
59154;BME280;44935;48.944;9.418;2022-07-30T06:58:02;98887.24;;;22.03;39.91
59154;BME280;44935;48.944;9.418;2022-07-30T07:00:29;98890.59;;;21.76;39.80
59154;BME280;44935;48.944;9.418;2022-07-30T07:02:56;98890.22;;;21.96;39.61
59154;BME280;44935;48.944;9.418;2022-07-30T07:05:23;98886.03;;;20.17;42.53
59154;BME280;44935;48.944;9.418;2022-07-30T07:07:50;98887.36;;;19.91;42.05
59154;BME280;44935;48.944;9.418;2022-07-30T07:10:17;98892.16;;;19.60;42.86
59154;BME280;44935;48.944;9.418;2022-07-30T07:12:44;98890.42;;;20.60;41.73
59154;BME280;44935;48.944;9.418;2022-07-30T07:15:11;98891.46;;;20.48;41.98
59154;BME280;44935;48.944;9.418;2022-07-30T07:17:38;98889.09;;;20.22;41.99
59154;BME280;44935;48.944;9.418;2022-07-30T07:20:06;98892.34;;;20.59;41.59
59154;BME280;44935;48.944;9.418;2022-07-30T07:22:33;98892.03;;;20.62;41.88
59154;BME280;44935;48.944;9.418;2022-07-30T07:25:00;98889.72;;;20.78;41.54
59154;BME280;44935;48.944;9.418;2022-07-30T07:27:26;98894.67;;;20.22;42.29
59154;BME280;44935;48.944;9.418;2022-07-30T07:29:53;98890.80;;;20.87;41.29
59154;BME280;44935;48.944;9.418;2022-07-30T07:32:20;98890.84;;;21.33;40.89
59154;BME280;44935;48.944;9.418;2022-07-30T07:34:47;98890.35;;;20.89;41.15
59154;BME280;44935;48.944;9.418;2022-07-30T07:37:14;98890.50;;;20.81;41.09
59154;BME280;44935;48.944;9.418;2022-07-30T07:39:41;98888.43;;;21.01;41.19
59154;BME280;44935;48.944;9.418;2022-07-30T07:42:08;98894.78;;;22.14;39.64
59154;BME280;44935;48.944;9.418;2022-07-30T07:44:35;98892.35;;;21.58;39.21
59154;BME280;44935;48.944;9.418;2022-07-30T07:47:02;98893.87;;;21.67;38.74
59154;BME280;44935;48.944;9.418;2022-07-30T07:49:29;98892.21;;;21.32;40.18
59154;BME280;44935;48.944;9.418;2022-07-30T07:51:56;98895.05;;;21.92;38.84
59154;BME280;44935;48.944;9.418;2022-07-30T07:54:23;98899.00;;;21.35;39.67
59154;BME280;44935;48.944;9.418;2022-07-30T07:56:51;98893.85;;;21.38;39.98
59154;BME280;44935;48.944;9.418;2022-07-30T07:59:18;98895.71;;;20.87;40.62
59154;BME280;44935;48.944;9.418;2022-07-30T08:01:45;98897.71;;;21.43;39.31
59154;BME280;44935;48.944;9.418;2022-07-30T08:04:12;98895.55;;;21.64;39.29
59154;BME280;44935;48.944;9.418;2022-07-30T08:06:39;98894.73;;;21.03;40.29
59154;BME280;44935;48.944;9.418;2022-07-30T08:09:06;98896.66;;;21.92;39.09
59154;BME280;44935;48.944;9.418;2022-07-30T08:11:33;98893.41;;;22.01;37.96
59154;BME280;44935;48.944;9.418;2022-07-30T08:14:00;98891.70;;;21.64;36.48
59154;BME280;44935;48.944;9.418;2022-07-30T08:16:27;98893.41;;;21.61;37.35
59154;BME280;44935;48.944;9.418;2022-07-30T08:18:54;98893.53;;;21.56;37.04
59154;BME280;44935;48.944;9.418;2022-07-30T08:21:21;98892.84;;;21.49;37.58
59154;BME280;44935;48.944;9.418;2022-07-30T08:23:48;98892.66;;;21.93;35.55
59154;BME280;44935;48.944;9.418;2022-07-30T08:26:15;98892.35;;;21.99;36.40
59154;BME280;44935;48.944;9.418;2022-07-30T08:28:42;98887.87;;;23.20;33.43
59154;BME280;44935;48.944;9.418;2022-07-30T08:31:09;98885.27;;;23.21;33.56
59154;BME280;44935;48.944;9.418;2022-07-30T08:33:36;98880.09;;;23.09;33.09
59154;BME280;44935;48.944;9.418;2022-07-30T08:36:03;98885.60;;;23.15;33.19
59154;BME280;44935;48.944;9.418;2022-07-30T08:38:30;98887.77;;;22.97;33.20
59154;BME280;44935;48.944;9.418;2022-07-30T08:40:57;98883.42;;;23.33;32.69
59154;BME280;44935;48.944;9.418;2022-07-30T08:43:24;98885.57;;;23.65;32.53
59154;BME280;44935;48.944;9.418;2022-07-30T08:45:52;98887.13;;;22.86;31.87
59154;BME280;44935;48.944;9.418;2022-07-30T08:48:20;98890.41;;;23.26;32.42
59154;BME280;44935;48.944;9.418;2022-07-30T08:50:47;98891.86;;;23.58;31.65
59154;BME280;44935;48.944;9.418;2022-07-30T08:53:15;98891.29;;;23.66;31.73
59154;BME280;44935;48.944;9.418;2022-07-30T08:55:43;98896.04;;;23.31;32.04
59154;BME280;44935;48.944;9.418;2022-07-30T08:58:19;98900.30;;;22.08;34.32
59154;BME280;44935;48.944;9.418;2022-07-30T09:00:49;98900.75;;;21.87;33.94
59154;BME280;44935;48.944;9.418;2022-07-30T09:03:16;98900.36;;;22.21;34.17
59154;BME280;44935;48.944;9.418;2022-07-30T09:05:43;98896.74;;;23.22;32.53
59154;BME280;44935;48.944;9.418;2022-07-30T09:08:10;98893.11;;;23.42;32.44
59154;BME280;44935;48.944;9.418;2022-07-30T09:10:37;98896.74;;;23.25;32.85
59154;BME280;44935;48.944;9.418;2022-07-30T09:13:10;98897.22;;;23.16;32.78
59154;BME280;44935;48.944;9.418;2022-07-30T09:15:49;98896.28;;;23.44;32.80
59154;BME280;44935;48.944;9.418;2022-07-30T09:18:25;98893.50;;;23.02;33.46
59154;BME280;44935;48.944;9.418;2022-07-30T09:20:53;98904.29;;;22.71;32.70
59154;BME280;44935;48.944;9.418;2022-07-30T09:23:21;98905.98;;;22.63;33.41
59154;BME280;44935;48.944;9.418;2022-07-30T09:25:48;98904.02;;;22.78;34.06
59154;BME280;44935;48.944;9.418;2022-07-30T09:28:16;98896.82;;;23.21;33.03
59154;BME280;44935;48.944;9.418;2022-07-30T09:30:54;98895.12;;;23.78;32.39
59154;BME280;44935;48.944;9.418;2022-07-30T09:33:31;98894.47;;;23.68;31.54
59154;BME280;44935;48.944;9.418;2022-07-30T09:35:59;98889.99;;;22.87;32.98
59154;BME280;44935;48.944;9.418;2022-07-30T09:38:26;98892.32;;;23.60;32.61
59154;BME280;44935;48.944;9.418;2022-07-30T09:40:55;98892.89;;;24.03;30.87
59154;BME280;44935;48.944;9.418;2022-07-30T09:43:22;98900.52;;;24.04;31.11
59154;BME280;44935;48.944;9.418;2022-07-30T09:45:51;98892.85;;;23.21;31.95
59154;BME280;44935;48.944;9.418;2022-07-30T09:48:20;98895.58;;;22.94;32.93
59154;BME280;44935;48.944;9.418;2022-07-30T09:50:48;98891.65;;;23.59;31.84
59154;BME280;44935;48.944;9.418;2022-07-30T09:53:15;98891.54;;;24.02;30.99
59154;BME280;44935;48.944;9.418;2022-07-30T09:55:43;98891.97;;;24.34;30.63
59154;BME280;44935;48.944;9.418;2022-07-30T09:58:11;98898.89;;;23.71;30.91
59154;BME280;44935;48.944;9.418;2022-07-30T10:00:39;98894.62;;;23.98;30.78
59154;BME280;44935;48.944;9.418;2022-07-30T10:03:16;98892.33;;;24.26;30.23
59154;BME280;44935;48.944;9.418;2022-07-30T10:05:50;98891.27;;;22.86;32.42
59154;BME280;44935;48.944;9.418;2022-07-30T10:08:18;98892.37;;;23.94;31.03
59154;BME280;44935;48.944;9.418;2022-07-30T10:10:45;98889.00;;;23.57;30.70
59154;BME280;44935;48.944;9.418;2022-07-30T10:13:13;98888.33;;;24.65;29.71
59154;BME280;44935;48.944;9.418;2022-07-30T10:15:41;98889.14;;;24.46;30.03
59154;BME280;44935;48.944;9.418;2022-07-30T10:18:10;98890.36;;;24.33;30.35
59154;BME280;44935;48.944;9.418;2022-07-30T10:20:37;98887.60;;;24.30;30.72
59154;BME280;44935;48.944;9.418;2022-07-30T10:23:06;98885.36;;;22.91;32.26
59154;BME280;44935;48.944;9.418;2022-07-30T10:25:33;98887.43;;;22.93;33.16
59154;BME280;44935;48.944;9.418;2022-07-30T10:28:01;98884.61;;;23.63;32.18
59154;BME280;44935;48.944;9.418;2022-07-30T10:30:28;98886.40;;;25.51;28.90
59154;BME280;44935;48.944;9.418;2022-07-30T10:32:56;98882.27;;;24.08;29.83
59154;BME280;44935;48.944;9.418;2022-07-30T10:35:24;98879.46;;;23.59;30.62
59154;BME280;44935;48.944;9.418;2022-07-30T10:37:52;98881.64;;;24.48;29.96
59154;BME280;44935;48.944;9.418;2022-07-30T10:40:28;98882.76;;;24.53;29.28
59154;BME280;44935;48.944;9.418;2022-07-30T10:43:14;98879.83;;;23.62;30.43
59154;BME280;44935;48.944;9.418;2022-07-30T10:45:48;98880.59;;;24.30;28.98
59154;BME280;44935;48.944;9.418;2022-07-30T10:48:18;98884.01;;;23.56;30.88
59154;BME280;44935;48.944;9.418;2022-07-30T10:50:50;98878.78;;;23.76;30.44
59154;BME280;44935;48.944;9.418;2022-07-30T10:53:35;98878.19;;;24.67;30.17
59154;BME280;44935;48.944;9.418;2022-07-30T10:56:11;98870.84;;;24.66;30.15
59154;BME280;44935;48.944;9.418;2022-07-30T10:59:10;98871.67;;;24.84;28.17
59154;BME280;44935;48.944;9.418;2022-07-30T11:02:10;98870.28;;;25.19;28.09
59154;BME280;44935;48.944;9.418;2022-07-30T11:04:36;98869.96;;;24.59;28.44
59154;BME280;44935;48.944;9.418;2022-07-30T11:07:35;98870.96;;;24.96;28.46
59154;BME280;44935;48.944;9.418;2022-07-30T11:10:03;98869.99;;;25.21;27.92
59154;BME280;44935;48.944;9.418;2022-07-30T11:13:03;98866.18;;;26.11;27.76
59154;BME280;44935;48.944;9.418;2022-07-30T11:16:03;98867.47;;;25.25;28.48
59154;BME280;44935;48.944;9.418;2022-07-30T11:19:02;98871.02;;;25.27;28.05
59154;BME280;44935;48.944;9.418;2022-07-30T11:21:29;98865.70;;;25.33;27.79
59154;BME280;44935;48.944;9.418;2022-07-30T11:23:57;98867.29;;;25.75;27.95
59154;BME280;44935;48.944;9.418;2022-07-30T11:26:56;98873.51;;;25.31;28.31
59154;BME280;44935;48.944;9.418;2022-07-30T11:29:33;98866.13;;;24.82;28.63
59154;BME280;44935;48.944;9.418;2022-07-30T11:32:23;98864.25;;;25.56;27.81
59154;BME280;44935;48.944;9.418;2022-07-30T11:34:52;98861.16;;;24.55;28.51
59154;BME280;44935;48.944;9.418;2022-07-30T11:37:56;98855.92;;;25.06;27.99
59154;BME280;44935;48.944;9.418;2022-07-30T11:40:24;98852.28;;;25.73;26.98
59154;BME280;44935;48.944;9.418;2022-07-30T11:43:14;98849.19;;;25.62;27.42
59154;BME280;44935;48.944;9.418;2022-07-30T11:45:43;98847.48;;;25.32;27.06
59154;BME280;44935;48.944;9.418;2022-07-30T11:48:11;98853.61;;;25.50;27.35
59154;BME280;44935;48.944;9.418;2022-07-30T11:50:40;98845.89;;;26.09;26.42
59154;BME280;44935;48.944;9.418;2022-07-30T11:53:09;98855.28;;;25.96;27.25
59154;BME280;44935;48.944;9.418;2022-07-30T11:55:41;98851.55;;;26.32;26.61
59154;BME280;44935;48.944;9.418;2022-07-30T11:58:10;98851.11;;;25.82;26.51
59154;BME280;44935;48.944;9.418;2022-07-30T12:00:47;98853.98;;;25.76;26.89
59154;BME280;44935;48.944;9.418;2022-07-30T12:03:16;98847.70;;;25.36;26.86
59154;BME280;44935;48.944;9.418;2022-07-30T12:05:44;98846.11;;;25.30;27.63
59154;BME280;44935;48.944;9.418;2022-07-30T12:08:12;98846.92;;;23.93;28.90
59154;BME280;44935;48.944;9.418;2022-07-30T12:10:40;98843.46;;;24.31;28.37
59154;BME280;44935;48.944;9.418;2022-07-30T12:13:10;98846.69;;;24.80;27.04
59154;BME280;44935;48.944;9.418;2022-07-30T12:15:38;98843.54;;;24.89;27.69
59154;BME280;44935;48.944;9.418;2022-07-30T12:18:06;98836.27;;;25.15;27.35
59154;BME280;44935;48.944;9.418;2022-07-30T12:20:33;98836.25;;;26.33;26.10
59154;BME280;44935;48.944;9.418;2022-07-30T12:23:00;98838.28;;;25.77;25.52
59154;BME280;44935;48.944;9.418;2022-07-30T12:25:28;98837.77;;;25.21;26.35
59154;BME280;44935;48.944;9.418;2022-07-30T12:27:55;98838.38;;;25.16;26.56
59154;BME280;44935;48.944;9.418;2022-07-30T12:30:22;98844.89;;;24.56;26.86
59154;BME280;44935;48.944;9.418;2022-07-30T12:32:49;98842.36;;;24.74;26.52
59154;BME280;44935;48.944;9.418;2022-07-30T12:35:16;98839.90;;;24.16;27.34
59154;BME280;44935;48.944;9.418;2022-07-30T12:38:01;98835.32;;;24.80;26.90
59154;BME280;44935;48.944;9.418;2022-07-30T12:40:28;98835.30;;;25.92;26.41
59154;BME280;44935;48.944;9.418;2022-07-30T12:42:55;98833.19;;;26.40;25.90
59154;BME280;44935;48.944;9.418;2022-07-30T12:45:28;98836.48;;;26.61;25.25
59154;BME280;44935;48.944;9.418;2022-07-30T12:47:55;98832.65;;;26.67;25.33
59154;BME280;44935;48.944;9.418;2022-07-30T12:50:22;98835.40;;;26.28;24.83
59154;BME280;44935;48.944;9.418;2022-07-30T12:52:51;98829.97;;;25.89;25.71
59154;BME280;44935;48.944;9.418;2022-07-30T12:55:27;98825.03;;;25.54;26.23
59154;BME280;44935;48.944;9.418;2022-07-30T12:57:57;98824.65;;;25.42;26.27
59154;BME280;44935;48.944;9.418;2022-07-30T13:00:25;98826.58;;;26.51;25.47
59154;BME280;44935;48.944;9.418;2022-07-30T13:02:54;98824.59;;;26.29;25.71
59154;BME280;44935;48.944;9.418;2022-07-30T13:05:43;98818.87;;;26.50;24.92
59154;BME280;44935;48.944;9.418;2022-07-30T13:08:10;98816.17;;;26.53;25.38
59154;BME280;44935;48.944;9.418;2022-07-30T13:10:37;98808.36;;;26.37;25.76